sensor_id;sensor_type;location;lat;lon;timestamp;pressure;altitude;pressure_sealevel;temperature;humidity
37648;BME280;23490;53.656;10.076;2023-11-21T00:01:51;99384.97;;;-145.95;100.00
37648;BME280;23490;53.656;10.076;2023-11-21T00:04:17;99393.22;;;-145.95;100.00
37648;BME280;23490;53.656;10.076;2023-11-21T00:06:42;99413.88;;;-145.95;100.00
37648;BME280;23490;53.656;10.076;2023-11-21T00:09:08;99418.00;;;-145.95;100.00
37648;BME280;23490;53.656;10.076;2023-11-21T00:11:33;99370.50;;;-145.95;100.00
37648;BME280;23490;53.656;10.076;2023-11-21T00:13:59;99407.69;;;-145.95;100.00
37648;BME280;23490;53.656;10.076;2023-11-21T00:16:24;99401.50;;;-145.95;100.00
37648;BME280;23490;53.656;10.076;2023-11-21T00:18:50;99389.09;;;-145.95;100.00
37648;BME280;23490;53.656;10.076;2023-11-21T00:21:16;99418.00;;;-145.95;100.00
37648;BME280;23490;53.656;10.076;2023-11-21T00:23:42;99413.88;;;-145.95;100.00
37648;BME280;23490;53.656;10.076;2023-11-21T00:26:07;99415.94;;;-145.95;100.00
37648;BME280;23490;53.656;10.076;2023-11-21T00:28:33;99424.19;;;-145.95;100.00
37648;BME280;23490;53.656;10.076;2023-11-21T00:30:58;99409.75;;;-145.95;100.00
37648;BME280;23490;53.656;10.076;2023-11-21T00:33:23;99378.78;;;-145.95;100.00
37648;BME280;23490;53.656;10.076;2023-11-21T00:35:50;99401.50;;;-145.95;100.00
37648;BME280;23490;53.656;10.076;2023-11-21T00:38:15;99451.06;;;-145.95;100.00
37648;BME280;23490;53.656;10.076;2023-11-21T00:40:43;99438.66;;;-145.95;100.00
37648;BME280;23490;53.656;10.076;2023-11-21T00:43:09;99438.66;;;-145.95;100.00
37648;BME280;23490;53.656;10.076;2023-11-21T00:45:35;99467.56;;;-145.95;100.00
37648;BME280;23490;53.656;10.076;2023-11-21T00:48:02;99413.88;;;-145.95;100.00
37648;BME280;23490;53.656;10.076;2023-11-21T00:50:30;99418.00;;;-145.95;100.00
37648;BME280;23490;53.656;10.076;2023-11-21T00:52:55;99451.06;;;-145.95;100.00
37648;BME280;23490;53.656;10.076;2023-11-21T00:55:21;99463.44;;;-145.95;100.00
37648;BME280;23490;53.656;10.076;2023-11-21T00:57:47;99442.78;;;-145.95;100.00
37648;BME280;23490;53.656;10.076;2023-11-21T01:00:13;99467.56;;;-145.95;100.00
37648;BME280;23490;53.656;10.076;2023-11-21T01:02:45;99453.13;;;-145.95;100.00
37648;BME280;23490;53.656;10.076;2023-11-21T01:05:11;99451.06;;;-145.95;100.00
37648;BME280;23490;53.656;10.076;2023-11-21T01:07:37;99496.47;;;-145.95;100.00
37648;BME280;23490;53.656;10.076;2023-11-21T01:10:03;99482.03;;;-145.95;100.00
37648;BME280;23490;53.656;10.076;2023-11-21T01:12:34;99475.84;;;-145.95;100.00
37648;BME280;23490;53.656;10.076;2023-11-21T01:15:02;99508.88;;;-145.95;100.00
37648;BME280;23490;53.656;10.076;2023-11-21T01:17:27;99471.69;;;-145.95;100.00
37648;BME280;23490;53.656;10.076;2023-11-21T01:19:52;99486.16;;;-145.95;100.00
37648;BME280;23490;53.656;10.076;2023-11-21T01:22:18;99490.28;;;-145.95;100.00
37648;BME280;23490;53.656;10.076;2023-11-21T01:24:47;99521.28;;;-145.95;100.00
37648;BME280;23490;53.656;10.076;2023-11-21T01:27:13;99492.34;;;-145.95;100.00
37648;BME280;23490;53.656;10.076;2023-11-21T01:29:38;99488.22;;;-145.95;100.00
37648;BME280;23490;53.656;10.076;2023-11-21T01:32:03;99459.31;;;-145.95;100.00
37648;BME280;23490;53.656;10.076;2023-11-21T01:34:29;99523.34;;;-145.95;100.00
37648;BME280;23490;53.656;10.076;2023-11-21T01:36:54;99502.69;;;-145.95;100.00
37648;BME280;23490;53.656;10.076;2023-11-21T01:39:20;99535.72;;;-145.95;100.00
37648;BME280;23490;53.656;10.076;2023-11-21T01:41:50;99521.28;;;-145.95;100.00
37648;BME280;23490;53.656;10.076;2023-11-21T01:44:15;99537.78;;;-145.95;100.00
37648;BME280;23490;53.656;10.076;2023-11-21T01:46:42;99566.69;;;-145.95;100.00
37648;BME280;23490;53.656;10.076;2023-11-21T01:49:09;99566.69;;;-145.95;100.00
37648;BME280;23490;53.656;10.076;2023-11-21T01:51:38;99554.31;;;-145.95;100.00
37648;BME280;23490;53.656;10.076;2023-11-21T01:54:04;99550.19;;;-145.95;100.00
37648;BME280;23490;53.656;10.076;2023-11-21T01:56:30;99568.78;;;-145.95;100.00
37648;BME280;23490;53.656;10.076;2023-11-21T01:58:57;99539.84;;;-145.95;100.00
37648;BME280;23490;53.656;10.076;2023-11-21T02:01:23;99546.06;;;-145.95;100.00
37648;BME280;23490;53.656;10.076;2023-11-21T02:03:48;99566.69;;;-145.95;100.00
37648;BME280;23490;53.656;10.076;2023-11-21T02:06:14;99554.31;;;-145.95;100.00
37648;BME280;23490;53.656;10.076;2023-11-21T02:08:40;99533.66;;;-145.95;100.00
37648;BME280;23490;53.656;10.076;2023-11-21T02:11:08;99589.44;;;-145.95;100.00
37648;BME280;23490;53.656;10.076;2023-11-21T02:13:34;99531.59;;;-145.95;100.00
37648;BME280;23490;53.656;10.076;2023-11-21T02:16:00;99574.97;;;-145.95;100.00
37648;BME280;23490;53.656;10.076;2023-11-21T02:18:25;99546.06;;;-145.95;100.00
37648;BME280;23490;53.656;10.076;2023-11-21T02:20:50;99527.47;;;-145.95;100.00
37648;BME280;23490;53.656;10.076;2023-11-21T02:23:16;99568.78;;;-145.95;100.00
37648;BME280;23490;53.656;10.076;2023-11-21T02:25:43;99550.19;;;-145.95;100.00
37648;BME280;23490;53.656;10.076;2023-11-21T02:28:08;99587.34;;;-145.95;100.00
37648;BME280;23490;53.656;10.076;2023-11-21T02:30:34;99574.97;;;-145.95;100.00
37648;BME280;23490;53.656;10.076;2023-11-21T02:33:01;99552.25;;;-145.95;100.00
37648;BME280;23490;53.656;10.076;2023-11-21T02:35:26;99546.06;;;-145.95;100.00
37648;BME280;23490;53.656;10.076;2023-11-21T02:37:52;99558.44;;;-145.95;100.00
37648;BME280;23490;53.656;10.076;2023-11-21T02:40:18;99574.97;;;-145.95;100.00
37648;BME280;23490;53.656;10.076;2023-11-21T02:42:46;99554.31;;;-145.95;100.00
37648;BME280;23490;53.656;10.076;2023-11-21T02:45:13;99541.91;;;-145.95;100.00
37648;BME280;23490;53.656;10.076;2023-11-21T02:47:39;99649.31;;;-145.95;100.00
37648;BME280;23490;53.656;10.076;2023-11-21T02:50:06;99595.63;;;-145.95;100.00
37648;BME280;23490;53.656;10.076;2023-11-21T02:52:33;99647.25;;;-145.95;100.00
37648;BME280;23490;53.656;10.076;2023-11-21T02:54:59;99591.50;;;-145.95;100.00
37648;BME280;23490;53.656;10.076;2023-11-21T02:57:24;99603.88;;;-145.95;100.00
37648;BME280;23490;53.656;10.076;2023-11-21T02:59:50;99595.63;;;-145.95;100.00
37648;BME280;23490;53.656;10.076;2023-11-21T03:02:15;99587.34;;;-145.95;100.00
37648;BME280;23490;53.656;10.076;2023-11-21T03:04:41;99554.31;;;-145.95;100.00
37648;BME280;23490;53.656;10.076;2023-11-21T03:07:08;99566.69;;;-145.95;100.00
37648;BME280;23490;53.656;10.076;2023-11-21T03:09:33;99554.31;;;-145.95;100.00
37648;BME280;23490;53.656;10.076;2023-11-21T03:11:59;99603.88;;;-145.95;100.00
37648;BME280;23490;53.656;10.076;2023-11-21T03:14:24;99583.22;;;-145.95;100.00
37648;BME280;23490;53.656;10.076;2023-11-21T03:16:49;99541.91;;;-145.95;100.00
37648;BME280;23490;53.656;10.076;2023-11-21T03:19:15;99597.69;;;-145.95;100.00
37648;BME280;23490;53.656;10.076;2023-11-21T03:21:40;99628.66;;;-145.95;100.00
37648;BME280;23490;53.656;10.076;2023-11-21T03:24:06;99579.09;;;-145.95;100.00
37648;BME280;23490;53.656;10.076;2023-11-21T03:26:32;99587.34;;;-145.95;100.00
37648;BME280;23490;53.656;10.076;2023-11-21T03:28:57;99601.81;;;-145.95;100.00
37648;BME280;23490;53.656;10.076;2023-11-21T03:31:23;99608.00;;;-145.95;100.00
37648;BME280;23490;53.656;10.076;2023-11-21T03:33:48;99562.56;;;-145.95;100.00
37648;BME280;23490;53.656;10.076;2023-11-21T03:36:13;99591.50;;;-145.95;100.00
37648;BME280;23490;53.656;10.076;2023-11-21T03:38:41;99620.41;;;-145.95;100.00
37648;BME280;23490;53.656;10.076;2023-11-21T03:41:06;99562.56;;;-145.95;100.00
37648;BME280;23490;53.656;10.076;2023-11-21T03:43:32;99558.44;;;-145.95;100.00
37648;BME280;23490;53.656;10.076;2023-11-21T03:45:57;99601.81;;;-145.95;100.00
37648;BME280;23490;53.656;10.076;2023-11-21T03:48:22;99591.50;;;-145.95;100.00
37648;BME280;23490;53.656;10.076;2023-11-21T03:50:48;99612.16;;;-145.95;100.00
37648;BME280;23490;53.656;10.076;2023-11-21T03:53:14;99603.88;;;-145.95;100.00
37648;BME280;23490;53.656;10.076;2023-11-21T03:55:39;99645.19;;;-145.95;100.00
37648;BME280;23490;53.656;10.076;2023-11-21T03:58:04;99552.25;;;-145.95;100.00
37648;BME280;23490;53.656;10.076;2023-11-21T04:00:30;99568.78;;;-145.95;100.00
37648;BME280;23490;53.656;10.076;2023-11-21T04:02:55;99568.78;;;-145.95;100.00
37648;BME280;23490;53.656;10.076;2023-11-21T04:05:21;99570.84;;;-145.95;100.00
37648;BME280;23490;53.656;10.076;2023-11-21T04:07:50;99603.88;;;-145.95;100.00
37648;BME280;23490;53.656;10.076;2023-11-21T04:10:16;99608.00;;;-145.95;100.00
37648;BME280;23490;53.656;10.076;2023-11-21T04:12:41;99599.75;;;-145.95;100.00
37648;BME280;23490;53.656;10.076;2023-11-21T04:15:07;99628.66;;;-145.95;100.00
37648;BME280;23490;53.656;10.076;2023-11-21T04:17:34;99570.84;;;-145.95;100.00
37648;BME280;23490;53.656;10.076;2023-11-21T04:19:59;99579.09;;;-145.95;100.00
37648;BME280;23490;53.656;10.076;2023-11-21T04:22:25;99608.00;;;-145.95;100.00
37648;BME280;23490;53.656;10.076;2023-11-21T04:24:50;99603.88;;;-145.95;100.00
37648;BME280;23490;53.656;10.076;2023-11-21T04:27:16;99593.56;;;-145.95;100.00
37648;BME280;23490;53.656;10.076;2023-11-21T04:29:43;99599.75;;;-145.95;100.00
37648;BME280;23490;53.656;10.076;2023-11-21T04:32:09;99544.00;;;-145.95;100.00
37648;BME280;23490;53.656;10.076;2023-11-21T04:34:34;99632.78;;;-145.95;100.00
37648;BME280;23490;53.656;10.076;2023-11-21T04:37:00;99599.75;;;-145.95;100.00
37648;BME280;23490;53.656;10.076;2023-11-21T04:39:25;99546.06;;;-145.95;100.00
37648;BME280;23490;53.656;10.076;2023-11-21T04:41:51;99603.88;;;-145.95;100.00
37648;BME280;23490;53.656;10.076;2023-11-21T04:44:16;99612.16;;;-145.95;100.00
37648;BME280;23490;53.656;10.076;2023-11-21T04:46:42;99587.34;;;-145.95;100.00
37648;BME280;23490;53.656;10.076;2023-11-21T04:49:07;99581.16;;;-145.95;100.00
37648;BME280;23490;53.656;10.076;2023-11-21T04:51:32;99587.34;;;-145.95;100.00
37648;BME280;23490;53.656;10.076;2023-11-21T04:53:58;99574.97;;;-145.95;100.00
37648;BME280;23490;53.656;10.076;2023-11-21T04:56:23;99574.97;;;-145.95;100.00
37648;BME280;23490;53.656;10.076;2023-11-21T04:58:48;99574.97;;;-145.95;100.00
37648;BME280;23490;53.656;10.076;2023-11-21T05:01:14;99595.63;;;-145.95;100.00
37648;BME280;23490;53.656;10.076;2023-11-21T05:03:39;99570.84;;;-145.95;100.00
37648;BME280;23490;53.656;10.076;2023-11-21T05:06:05;99624.53;;;-145.95;100.00
37648;BME280;23490;53.656;10.076;2023-11-21T05:08:31;99612.16;;;-145.95;100.00
37648;BME280;23490;53.656;10.076;2023-11-21T05:10:56;99636.94;;;-145.95;100.00
37648;BME280;23490;53.656;10.076;2023-11-21T05:13:22;99610.06;;;-145.95;100.00
37648;BME280;23490;53.656;10.076;2023-11-21T05:15:52;99608.00;;;-145.95;100.00
37648;BME280;23490;53.656;10.076;2023-11-21T05:18:17;99595.63;;;-145.95;100.00
37648;BME280;23490;53.656;10.076;2023-11-21T05:20:42;99612.16;;;-145.95;100.00
37648;BME280;23490;53.656;10.076;2023-11-21T05:23:08;99608.00;;;-145.95;100.00
37648;BME280;23490;53.656;10.076;2023-11-21T05:25:33;99616.28;;;-145.95;100.00
37648;BME280;23490;53.656;10.076;2023-11-21T05:27:59;99608.00;;;-145.95;100.00
37648;BME280;23490;53.656;10.076;2023-11-21T05:30:26;99599.75;;;-145.95;100.00
37648;BME280;23490;53.656;10.076;2023-11-21T05:32:52;99599.75;;;-145.95;100.00
37648;BME280;23490;53.656;10.076;2023-11-21T05:35:17;99612.16;;;-145.95;100.00
37648;BME280;23490;53.656;10.076;2023-11-21T05:37:43;99632.78;;;-145.95;100.00
37648;BME280;23490;53.656;10.076;2023-11-21T05:40:09;99593.56;;;-145.95;100.00
37648;BME280;23490;53.656;10.076;2023-11-21T05:42:35;99562.56;;;-145.95;100.00
37648;BME280;23490;53.656;10.076;2023-11-21T05:45:00;99587.34;;;-145.95;100.00
37648;BME280;23490;53.656;10.076;2023-11-21T05:47:44;99593.56;;;-145.95;100.00
37648;BME280;23490;53.656;10.076;2023-11-21T05:50:12;99626.59;;;-145.95;100.00
37648;BME280;23490;53.656;10.076;2023-11-21T05:52:40;99566.69;;;-145.95;100.00
37648;BME280;23490;53.656;10.076;2023-11-21T05:55:06;99566.69;;;-145.95;100.00
37648;BME280;23490;53.656;10.076;2023-11-21T05:57:35;99599.75;;;-145.95;100.00
37648;BME280;23490;53.656;10.076;2023-11-21T06:00:05;99574.97;;;-145.95;100.00
37648;BME280;23490;53.656;10.076;2023-11-21T06:02:38;99570.84;;;-145.95;100.00
37648;BME280;23490;53.656;10.076;2023-11-21T06:05:06;99612.16;;;-145.95;100.00
37648;BME280;23490;53.656;10.076;2023-11-21T06:07:32;99554.31;;;-145.95;100.00
37648;BME280;23490;53.656;10.076;2023-11-21T06:09:57;99587.34;;;-145.95;100.00
37648;BME280;23490;53.656;10.076;2023-11-21T06:12:22;99595.63;;;-145.95;100.00
37648;BME280;23490;53.656;10.076;2023-11-21T06:14:48;99560.50;;;-145.95;100.00
37648;BME280;23490;53.656;10.076;2023-11-21T06:17:13;99591.50;;;-145.95;100.00
37648;BME280;23490;53.656;10.076;2023-11-21T06:19:39;99574.97;;;-145.95;100.00
37648;BME280;23490;53.656;10.076;2023-11-21T06:22:05;99591.50;;;-145.95;100.00
37648;BME280;23490;53.656;10.076;2023-11-21T06:24:31;99595.63;;;-145.95;100.00
37648;BME280;23490;53.656;10.076;2023-11-21T06:26:57;99608.00;;;-145.95;100.00
37648;BME280;23490;53.656;10.076;2023-11-21T06:29:22;99595.63;;;-145.95;100.00
37648;BME280;23490;53.656;10.076;2023-11-21T06:31:47;99554.31;;;-145.95;100.00
37648;BME280;23490;53.656;10.076;2023-11-21T06:34:13;99579.09;;;-145.95;100.00
37648;BME280;23490;53.656;10.076;2023-11-21T06:36:38;99560.50;;;-145.95;100.00
37648;BME280;23490;53.656;10.076;2023-11-21T06:39:04;99628.66;;;-145.95;100.00
37648;BME280;23490;53.656;10.076;2023-11-21T06:41:33;99608.00;;;-145.95;100.00
37648;BME280;23490;53.656;10.076;2023-11-21T06:43:58;99570.84;;;-145.95;100.00
37648;BME280;23490;53.656;10.076;2023-11-21T06:46:24;99589.44;;;-145.95;100.00
37648;BME280;23490;53.656;10.076;2023-11-21T06:48:49;99591.50;;;-145.95;100.00
37648;BME280;23490;53.656;10.076;2023-11-21T06:51:15;99603.88;;;-145.95;100.00
37648;BME280;23490;53.656;10.076;2023-11-21T06:53:41;99601.81;;;-145.95;100.00
37648;BME280;23490;53.656;10.076;2023-11-21T06:56:17;99591.50;;;-145.95;100.00
37648;BME280;23490;53.656;10.076;2023-11-21T06:58:45;99560.50;;;-145.95;100.00
37648;BME280;23490;53.656;10.076;2023-11-21T07:01:11;99610.06;;;-145.95;100.00
37648;BME280;23490;53.656;10.076;2023-11-21T07:03:37;99603.88;;;-145.95;100.00
37648;BME280;23490;53.656;10.076;2023-11-21T07:06:03;99583.22;;;-145.95;100.00
37648;BME280;23490;53.656;10.076;2023-11-21T07:08:28;99595.63;;;-145.95;100.00
37648;BME280;23490;53.656;10.076;2023-11-21T07:10:54;99541.91;;;-145.95;100.00
37648;BME280;23490;53.656;10.076;2023-11-21T07:13:19;99591.50;;;-145.95;100.00
37648;BME280;23490;53.656;10.076;2023-11-21T07:15:45;99603.88;;;-145.95;100.00
37648;BME280;23490;53.656;10.076;2023-11-21T07:18:10;99624.53;;;-145.95;100.00
37648;BME280;23490;53.656;10.076;2023-11-21T07:20:36;99603.88;;;-145.95;100.00
37648;BME280;23490;53.656;10.076;2023-11-21T07:23:02;99570.84;;;-145.95;100.00
37648;BME280;23490;53.656;10.076;2023-11-21T07:25:28;99562.56;;;-145.95;100.00
37648;BME280;23490;53.656;10.076;2023-11-21T07:27:54;99572.91;;;-145.95;100.00
37648;BME280;23490;53.656;10.076;2023-11-21T07:30:20;99591.50;;;-145.95;100.00
37648;BME280;23490;53.656;10.076;2023-11-21T07:32:47;99583.22;;;-145.95;100.00
37648;BME280;23490;53.656;10.076;2023-11-21T07:35:13;99626.59;;;-145.95;100.00
37648;BME280;23490;53.656;10.076;2023-11-21T07:37:38;99579.09;;;-145.95;100.00
37648;BME280;23490;53.656;10.076;2023-11-21T07:40:04;99591.50;;;-145.95;100.00
37648;BME280;23490;53.656;10.076;2023-11-21T07:42:29;99531.59;;;-145.95;100.00
37648;BME280;23490;53.656;10.076;2023-11-21T07:44:55;99570.84;;;-145.95;100.00
37648;BME280;23490;53.656;10.076;2023-11-21T07:47:20;99605.94;;;-145.95;100.00
37648;BME280;23490;53.656;10.076;2023-11-21T07:49:45;99574.97;;;-145.95;100.00
37648;BME280;23490;53.656;10.076;2023-11-21T07:52:13;99587.34;;;-145.95;100.00
37648;BME280;23490;53.656;10.076;2023-11-21T07:54:38;99562.56;;;-145.95;100.00
37648;BME280;23490;53.656;10.076;2023-11-21T07:57:03;99591.50;;;-145.95;100.00
37648;BME280;23490;53.656;10.076;2023-11-21T07:59:29;99608.00;;;-145.95;100.00
37648;BME280;23490;53.656;10.076;2023-11-21T08:01:55;99562.56;;;-145.95;100.00
37648;BME280;23490;53.656;10.076;2023-11-21T08:04:20;99568.78;;;-145.95;100.00
37648;BME280;23490;53.656;10.076;2023-11-21T08:06:45;99577.03;;;-145.95;100.00
37648;BME280;23490;53.656;10.076;2023-11-21T08:09:11;99581.16;;;-145.95;100.00
37648;BME280;23490;53.656;10.076;2023-11-21T08:11:37;99620.41;;;-145.95;100.00
37648;BME280;23490;53.656;10.076;2023-11-21T08:14:04;99603.88;;;-145.95;100.00
37648;BME280;23490;53.656;10.076;2023-11-21T08:16:30;99610.06;;;-145.95;100.00
37648;BME280;23490;53.656;10.076;2023-11-21T08:18:55;99554.31;;;-145.95;100.00
37648;BME280;23490;53.656;10.076;2023-11-21T08:21:20;99597.69;;;-145.95;100.00
37648;BME280;23490;53.656;10.076;2023-11-21T08:23:46;99599.75;;;-145.95;100.00
37648;BME280;23490;53.656;10.076;2023-11-21T08:26:15;99570.84;;;-145.95;100.00
37648;BME280;23490;53.656;10.076;2023-11-21T08:28:40;99628.66;;;-145.95;100.00
37648;BME280;23490;53.656;10.076;2023-11-21T08:31:06;99595.63;;;-145.95;100.00
37648;BME280;23490;53.656;10.076;2023-11-21T08:33:31;99599.75;;;-145.95;100.00
37648;BME280;23490;53.656;10.076;2023-11-21T08:35:57;99539.84;;;-145.95;100.00
37648;BME280;23490;53.656;10.076;2023-11-21T08:38:22;99564.63;;;-145.95;100.00
37648;BME280;23490;53.656;10.076;2023-11-21T08:40:48;99591.50;;;-145.95;100.00
37648;BME280;23490;53.656;10.076;2023-11-21T08:43:13;99579.09;;;-145.95;100.00
37648;BME280;23490;53.656;10.076;2023-11-21T08:45:39;99562.56;;;-145.95;100.00
37648;BME280;23490;53.656;10.076;2023-11-21T08:48:05;99579.09;;;-145.95;100.00
37648;BME280;23490;53.656;10.076;2023-11-21T08:50:30;99591.50;;;-145.95;100.00
37648;BME280;23490;53.656;10.076;2023-11-21T08:52:56;99570.84;;;-145.95;100.00
37648;BME280;23490;53.656;10.076;2023-11-21T08:55:21;99579.09;;;-145.95;100.00
37648;BME280;23490;53.656;10.076;2023-11-21T08:57:47;99599.75;;;-145.95;100.00
37648;BME280;23490;53.656;10.076;2023-11-21T09:00:13;99587.34;;;-145.95;100.00
37648;BME280;23490;53.656;10.076;2023-11-21T09:02:43;99591.50;;;-145.95;100.00
37648;BME280;23490;53.656;10.076;2023-11-21T09:05:13;99591.50;;;-145.95;100.00
37648;BME280;23490;53.656;10.076;2023-11-21T09:07:39;99535.72;;;-145.95;100.00
37648;BME280;23490;53.656;10.076;2023-11-21T09:10:08;99574.97;;;-145.95;100.00
37648;BME280;23490;53.656;10.076;2023-11-21T09:12:37;99548.13;;;-145.95;100.00
37648;BME280;23490;53.656;10.076;2023-11-21T09:15:04;99562.56;;;-145.95;100.00
37648;BME280;23490;53.656;10.076;2023-11-21T09:17:33;99558.44;;;-145.95;100.00
37648;BME280;23490;53.656;10.076;2023-11-21T09:20:02;99554.31;;;-145.95;100.00
37648;BME280;23490;53.656;10.076;2023-11-21T09:22:30;99591.50;;;-145.95;100.00
37648;BME280;23490;53.656;10.076;2023-11-21T09:24:57;99568.78;;;-145.95;100.00
37648;BME280;23490;53.656;10.076;2023-11-21T09:27:23;99502.69;;;-145.95;100.00
37648;BME280;23490;53.656;10.076;2023-11-21T09:29:49;99550.19;;;-145.95;100.00
37648;BME280;23490;53.656;10.076;2023-11-21T09:32:14;99583.22;;;-145.95;100.00
37648;BME280;23490;53.656;10.076;2023-11-21T09:34:44;99591.50;;;-145.95;100.00
37648;BME280;23490;53.656;10.076;2023-11-21T09:37:09;99595.63;;;-145.95;100.00
37648;BME280;23490;53.656;10.076;2023-11-21T09:39:34;99599.75;;;-145.95;100.00
37648;BME280;23490;53.656;10.076;2023-11-21T09:42:13;99601.81;;;-145.95;100.00
37648;BME280;23490;53.656;10.076;2023-11-21T09:44:45;99568.78;;;-145.95;100.00
37648;BME280;23490;53.656;10.076;2023-11-21T09:47:15;99541.91;;;-145.95;100.00
37648;BME280;23490;53.656;10.076;2023-11-21T09:49:43;99550.19;;;-145.95;100.00
37648;BME280;23490;53.656;10.076;2023-11-21T09:52:18;99548.13;;;-145.95;100.00
37648;BME280;23490;53.656;10.076;2023-11-21T09:54:45;99599.75;;;-145.95;100.00
37648;BME280;23490;53.656;10.076;2023-11-21T09:57:11;99541.91;;;-145.95;100.00
37648;BME280;23490;53.656;10.076;2023-11-21T09:59:36;99558.44;;;-145.95;100.00
37648;BME280;23490;53.656;10.076;2023-11-21T10:02:03;99564.63;;;-145.95;100.00
37648;BME280;23490;53.656;10.076;2023-11-21T10:04:28;99531.59;;;-145.95;100.00
37648;BME280;23490;53.656;10.076;2023-11-21T10:06:54;99591.50;;;-145.95;100.00
37648;BME280;23490;53.656;10.076;2023-11-21T10:09:20;99593.56;;;-145.95;100.00
37648;BME280;23490;53.656;10.076;2023-11-21T10:11:47;99539.84;;;-145.95;100.00
37648;BME280;23490;53.656;10.076;2023-11-21T10:14:12;99537.78;;;-145.95;100.00
37648;BME280;23490;53.656;10.076;2023-11-21T10:16:40;99500.63;;;-145.95;100.00
37648;BME280;23490;53.656;10.076;2023-11-21T10:19:05;99570.84;;;-145.95;100.00
37648;BME280;23490;53.656;10.076;2023-11-21T10:21:34;99539.84;;;-145.95;100.00
37648;BME280;23490;53.656;10.076;2023-11-21T10:23:59;99510.94;;;-145.95;100.00
37648;BME280;23490;53.656;10.076;2023-11-21T10:26:26;99500.63;;;-145.95;100.00
37648;BME280;23490;53.656;10.076;2023-11-21T10:28:58;99537.78;;;-145.95;100.00
37648;BME280;23490;53.656;10.076;2023-11-21T10:31:26;99558.44;;;-145.95;100.00
37648;BME280;23490;53.656;10.076;2023-11-21T10:33:52;99529.53;;;-145.95;100.00
37648;BME280;23490;53.656;10.076;2023-11-21T10:36:28;99537.78;;;-145.95;100.00
37648;BME280;23490;53.656;10.076;2023-11-21T10:38:53;99591.50;;;-145.95;100.00
37648;BME280;23490;53.656;10.076;2023-11-21T10:41:20;99537.78;;;-145.95;100.00
37648;BME280;23490;53.656;10.076;2023-11-21T10:43:45;99608.00;;;-145.95;100.00
37648;BME280;23490;53.656;10.076;2023-11-21T10:46:11;99560.50;;;-145.95;100.00
37648;BME280;23490;53.656;10.076;2023-11-21T10:48:37;99546.06;;;-145.95;100.00
37648;BME280;23490;53.656;10.076;2023-11-21T10:51:07;99579.09;;;-145.95;100.00
37648;BME280;23490;53.656;10.076;2023-11-21T10:53:42;99587.34;;;-145.95;100.00
37648;BME280;23490;53.656;10.076;2023-11-21T10:56:08;99564.63;;;-145.95;100.00
37648;BME280;23490;53.656;10.076;2023-11-21T10:58:36;99568.78;;;-145.95;100.00
37648;BME280;23490;53.656;10.076;2023-11-21T11:01:06;99560.50;;;-145.95;100.00
37648;BME280;23490;53.656;10.076;2023-11-21T11:03:32;99579.09;;;-145.95;100.00
37648;BME280;23490;53.656;10.076;2023-11-21T11:05:59;99552.25;;;-145.95;100.00
37648;BME280;23490;53.656;10.076;2023-11-21T11:08:26;99550.19;;;-145.95;100.00
37648;BME280;23490;53.656;10.076;2023-11-21T11:10:53;99525.41;;;-145.95;100.00
37648;BME280;23490;53.656;10.076;2023-11-21T11:13:19;99585.28;;;-145.95;100.00
37648;BME280;23490;53.656;10.076;2023-11-21T11:15:48;99546.06;;;-145.95;100.00
37648;BME280;23490;53.656;10.076;2023-11-21T11:18:14;99556.38;;;-145.95;100.00
37648;BME280;23490;53.656;10.076;2023-11-21T11:20:40;99554.31;;;-145.95;100.00
37648;BME280;23490;53.656;10.076;2023-11-21T11:23:21;99531.59;;;-145.95;100.00
37648;BME280;23490;53.656;10.076;2023-11-21T11:26:12;99550.19;;;-145.95;100.00
37648;BME280;23490;53.656;10.076;2023-11-21T11:34:45;99548.13;;;-145.95;100.00
37648;BME280;23490;53.656;10.076;2023-11-21T11:37:12;99585.28;;;-145.95;100.00
37648;BME280;23490;53.656;10.076;2023-11-21T11:39:40;99570.84;;;-145.95;100.00
37648;BME280;23490;53.656;10.076;2023-11-21T11:42:14;99541.91;;;-145.95;100.00
37648;BME280;23490;53.656;10.076;2023-11-21T11:47:26;99537.78;;;-145.95;100.00
37648;BME280;23490;53.656;10.076;2023-11-21T11:49:57;99548.13;;;-145.95;100.00
37648;BME280;23490;53.656;10.076;2023-11-21T11:52:43;99587.34;;;-145.95;100.00
37648;BME280;23490;53.656;10.076;2023-11-21T11:55:13;99550.19;;;-145.95;100.00
37648;BME280;23490;53.656;10.076;2023-11-21T11:57:40;99517.13;;;-145.95;100.00
37648;BME280;23490;53.656;10.076;2023-11-21T12:00:20;99537.78;;;-145.95;100.00
37648;BME280;23490;53.656;10.076;2023-11-21T12:02:53;99562.56;;;-145.95;100.00
37648;BME280;23490;53.656;10.076;2023-11-21T12:05:21;99541.91;;;-145.95;100.00
37648;BME280;23490;53.656;10.076;2023-11-21T12:10:14;99568.78;;;-145.95;100.00
37648;BME280;23490;53.656;10.076;2023-11-21T12:13:06;99591.50;;;-145.95;100.00
37648;BME280;23490;53.656;10.076;2023-11-21T12:15:35;99554.31;;;-145.95;100.00
37648;BME280;23490;53.656;10.076;2023-11-21T12:18:02;99587.34;;;-145.95;100.00
37648;BME280;23490;53.656;10.076;2023-11-21T12:20:29;99599.75;;;-145.95;100.00
37648;BME280;23490;53.656;10.076;2023-11-21T12:22:59;99583.22;;;-145.95;100.00
37648;BME280;23490;53.656;10.076;2023-11-21T12:25:29;99605.94;;;-145.95;100.00
37648;BME280;23490;53.656;10.076;2023-11-21T12:27:57;99566.69;;;-145.95;100.00
37648;BME280;23490;53.656;10.076;2023-11-21T12:30:25;99587.34;;;-145.95;100.00